sensor_id;sensor_type;location;lat;lon;timestamp;temperature;humidity
45339;DHT22;31071;51.478;5.710;2023-06-14T00:00:13;18.80;64.00
45339;DHT22;31071;51.478;5.710;2023-06-14T00:02:40;18.20;63.90
45339;DHT22;31071;51.478;5.710;2023-06-14T00:05:07;18.90;65.40
45339;DHT22;31071;51.478;5.710;2023-06-14T00:07:40;17.90;64.70
45339;DHT22;31071;51.478;5.710;2023-06-14T00:10:10;18.00;63.90
45339;DHT22;31071;51.478;5.710;2023-06-14T00:12:36;17.90;64.10
45339;DHT22;31071;51.478;5.710;2023-06-14T00:15:03;18.00;64.40
45339;DHT22;31071;51.478;5.710;2023-06-14T00:17:28;18.00;64.30
45339;DHT22;31071;51.478;5.710;2023-06-14T00:20:00;18.90;64.60
45339;DHT22;31071;51.478;5.710;2023-06-14T00:22:26;17.90;64.20
45339;DHT22;31071;51.478;5.710;2023-06-14T00:24:53;17.90;64.40
45339;DHT22;31071;51.478;5.710;2023-06-14T00:27:19;19.90;65.70
45339;DHT22;31071;51.478;5.710;2023-06-14T00:29:45;20.20;65.80
45339;DHT22;31071;51.478;5.710;2023-06-14T00:32:10;17.90;64.70
45339;DHT22;31071;51.478;5.710;2023-06-14T00:34:36;19.10;65.20
45339;DHT22;31071;51.478;5.710;2023-06-14T00:37:02;18.20;64.90
45339;DHT22;31071;51.478;5.710;2023-06-14T00:39:28;17.60;64.80
45339;DHT22;31071;51.478;5.710;2023-06-14T00:41:53;17.50;65.60
45339;DHT22;31071;51.478;5.710;2023-06-14T00:44:19;17.50;66.00
45339;DHT22;31071;51.478;5.710;2023-06-14T00:46:48;17.40;65.40
45339;DHT22;31071;51.478;5.710;2023-06-14T00:49:14;16.80;65.00
45339;DHT22;31071;51.478;5.710;2023-06-14T00:51:41;17.30;65.00
45339;DHT22;31071;51.478;5.710;2023-06-14T00:54:08;17.60;65.50
45339;DHT22;31071;51.478;5.710;2023-06-14T00:56:36;17.20;66.30
45339;DHT22;31071;51.478;5.710;2023-06-14T00:59:02;17.10;66.00
45339;DHT22;31071;51.478;5.710;2023-06-14T01:01:29;17.00;65.90
45339;DHT22;31071;51.478;5.710;2023-06-14T01:03:58;17.20;65.60
45339;DHT22;31071;51.478;5.710;2023-06-14T01:06:54;16.40;65.20
45339;DHT22;31071;51.478;5.710;2023-06-14T01:09:36;17.10;65.40
45339;DHT22;31071;51.478;5.710;2023-06-14T01:12:15;18.00;66.40
45339;DHT22;31071;51.478;5.710;2023-06-14T01:14:42;16.90;66.20
45339;DHT22;31071;51.478;5.710;2023-06-14T01:17:09;19.00;67.80
45339;DHT22;31071;51.478;5.710;2023-06-14T01:19:43;16.80;66.30
45339;DHT22;31071;51.478;5.710;2023-06-14T01:22:10;17.60;66.60
45339;DHT22;31071;51.478;5.710;2023-06-14T01:24:36;16.90;65.90
45339;DHT22;31071;51.478;5.710;2023-06-14T01:27:02;17.00;66.10
45339;DHT22;31071;51.478;5.710;2023-06-14T01:29:29;17.00;65.90
45339;DHT22;31071;51.478;5.710;2023-06-14T01:31:58;17.00;65.90
45339;DHT22;31071;51.478;5.710;2023-06-14T01:34:25;16.90;66.00
45339;DHT22;31071;51.478;5.710;2023-06-14T01:36:52;16.90;66.30
45339;DHT22;31071;51.478;5.710;2023-06-14T01:39:20;16.90;66.10
45339;DHT22;31071;51.478;5.710;2023-06-14T01:44:37;16.80;65.70
45339;DHT22;31071;51.478;5.710;2023-06-14T01:47:03;16.80;66.00
45339;DHT22;31071;51.478;5.710;2023-06-14T01:49:29;16.70;66.90
45339;DHT22;31071;51.478;5.710;2023-06-14T01:51:55;16.60;66.70
45339;DHT22;31071;51.478;5.710;2023-06-14T01:54:20;16.60;67.30
45339;DHT22;31071;51.478;5.710;2023-06-14T01:56:47;17.10;66.90
45339;DHT22;31071;51.478;5.710;2023-06-14T01:59:12;16.60;66.60
45339;DHT22;31071;51.478;5.710;2023-06-14T02:01:38;16.70;66.60
45339;DHT22;31071;51.478;5.710;2023-06-14T02:04:04;17.40;67.00
45339;DHT22;31071;51.478;5.710;2023-06-14T02:06:30;19.40;68.20
45339;DHT22;31071;51.478;5.710;2023-06-14T02:09:01;16.60;67.30
45339;DHT22;31071;51.478;5.710;2023-06-14T02:11:26;17.00;66.70
45339;DHT22;31071;51.478;5.710;2023-06-14T02:13:52;16.60;66.70
45339;DHT22;31071;51.478;5.710;2023-06-14T02:16:18;16.50;66.60
45339;DHT22;31071;51.478;5.710;2023-06-14T02:18:43;17.90;67.00
45339;DHT22;31071;51.478;5.710;2023-06-14T02:21:09;16.40;67.10
45339;DHT22;31071;51.478;5.710;2023-06-14T02:23:35;17.40;67.30
45339;DHT22;31071;51.478;5.710;2023-06-14T02:26:00;16.50;66.60
45339;DHT22;31071;51.478;5.710;2023-06-14T02:28:26;16.50;66.60
45339;DHT22;31071;51.478;5.710;2023-06-14T02:30:52;17.60;67.10
45339;DHT22;31071;51.478;5.710;2023-06-14T02:33:17;19.10;67.50
45339;DHT22;31071;51.478;5.710;2023-06-14T02:35:43;16.60;66.50
45339;DHT22;31071;51.478;5.710;2023-06-14T02:38:09;16.50;66.60
45339;DHT22;31071;51.478;5.710;2023-06-14T02:40:35;16.60;66.10
45339;DHT22;31071;51.478;5.710;2023-06-14T02:43:00;16.60;66.60
45339;DHT22;31071;51.478;5.710;2023-06-14T02:45:27;16.60;66.00
45339;DHT22;31071;51.478;5.710;2023-06-14T02:47:53;16.50;66.30
45339;DHT22;31071;51.478;5.710;2023-06-14T02:50:18;16.50;66.70
45339;DHT22;31071;51.478;5.710;2023-06-14T02:52:46;16.50;66.20
45339;DHT22;31071;51.478;5.710;2023-06-14T02:55:12;16.50;66.90
45339;DHT22;31071;51.478;5.710;2023-06-14T02:57:38;16.50;66.70
45339;DHT22;31071;51.478;5.710;2023-06-14T03:00:05;17.60;67.40
45339;DHT22;31071;51.478;5.710;2023-06-14T03:02:35;16.50;66.60
45339;DHT22;31071;51.478;5.710;2023-06-14T03:05:00;16.40;66.70
45339;DHT22;31071;51.478;5.710;2023-06-14T03:07:28;16.50;66.80
45339;DHT22;31071;51.478;5.710;2023-06-14T03:09:55;18.50;67.60
45339;DHT22;31071;51.478;5.710;2023-06-14T03:12:21;16.40;66.90
45339;DHT22;31071;51.478;5.710;2023-06-14T03:14:47;16.40;66.50
45339;DHT22;31071;51.478;5.710;2023-06-14T03:17:13;16.40;66.30
45339;DHT22;31071;51.478;5.710;2023-06-14T03:19:39;16.30;67.00
45339;DHT22;31071;51.478;5.710;2023-06-14T03:22:06;16.30;66.90
45339;DHT22;31071;51.478;5.710;2023-06-14T03:24:33;16.40;67.20
45339;DHT22;31071;51.478;5.710;2023-06-14T03:27:02;16.50;66.60
45339;DHT22;31071;51.478;5.710;2023-06-14T03:29:28;15.40;66.50
45339;DHT22;31071;51.478;5.710;2023-06-14T03:32:03;16.40;66.90
45339;DHT22;31071;51.478;5.710;2023-06-14T03:34:28;16.40;66.70
45339;DHT22;31071;51.478;5.710;2023-06-14T03:36:55;16.60;67.80
45339;DHT22;31071;51.478;5.710;2023-06-14T03:39:21;16.40;67.10
45339;DHT22;31071;51.478;5.710;2023-06-14T03:41:56;16.30;67.50
45339;DHT22;31071;51.478;5.710;2023-06-14T03:44:22;16.30;67.60
45339;DHT22;31071;51.478;5.710;2023-06-14T03:46:47;16.30;67.60
45339;DHT22;31071;51.478;5.710;2023-06-14T03:49:13;16.30;68.10
45339;DHT22;31071;51.478;5.710;2023-06-14T03:51:39;16.30;68.00
45339;DHT22;31071;51.478;5.710;2023-06-14T03:54:05;16.30;68.20
45339;DHT22;31071;51.478;5.710;2023-06-14T03:56:31;16.30;68.20
45339;DHT22;31071;51.478;5.710;2023-06-14T03:58:57;16.30;68.10
45339;DHT22;31071;51.478;5.710;2023-06-14T04:01:23;16.30;67.90
45339;DHT22;31071;51.478;5.710;2023-06-14T04:03:52;14.70;67.20
45339;DHT22;31071;51.478;5.710;2023-06-14T04:06:18;15.20;67.50
45339;DHT22;31071;51.478;5.710;2023-06-14T04:08:45;18.00;69.20
45339;DHT22;31071;51.478;5.710;2023-06-14T04:11:11;16.80;68.70
45339;DHT22;31071;51.478;5.710;2023-06-14T04:13:37;17.80;69.10
45339;DHT22;31071;51.478;5.710;2023-06-14T04:16:15;16.30;69.10
45339;DHT22;31071;51.478;5.710;2023-06-14T04:18:45;16.20;68.60
45339;DHT22;31071;51.478;5.710;2023-06-14T04:21:12;16.30;69.80
45339;DHT22;31071;51.478;5.710;2023-06-14T04:23:40;16.40;68.50
45339;DHT22;31071;51.478;5.710;2023-06-14T04:26:09;16.40;68.70
45339;DHT22;31071;51.478;5.710;2023-06-14T04:28:37;16.80;68.60
45339;DHT22;31071;51.478;5.710;2023-06-14T04:31:06;16.70;68.80
45339;DHT22;31071;51.478;5.710;2023-06-14T04:33:36;16.40;68.90
45339;DHT22;31071;51.478;5.710;2023-06-14T04:36:10;16.40;68.70
45339;DHT22;31071;51.478;5.710;2023-06-14T04:38:39;16.60;68.60
45339;DHT22;31071;51.478;5.710;2023-06-14T04:41:05;19.30;70.60
45339;DHT22;31071;51.478;5.710;2023-06-14T04:43:33;16.70;68.90
45339;DHT22;31071;51.478;5.710;2023-06-14T04:46:06;16.80;68.60
45339;DHT22;31071;51.478;5.710;2023-06-14T04:48:40;16.80;68.70
45339;DHT22;31071;51.478;5.710;2023-06-14T04:51:08;18.00;69.50
45339;DHT22;31071;51.478;5.710;2023-06-14T04:53:34;16.90;69.10
45339;DHT22;31071;51.478;5.710;2023-06-14T04:56:02;16.90;68.80
45339;DHT22;31071;51.478;5.710;2023-06-14T04:58:29;16.90;69.10
45339;DHT22;31071;51.478;5.710;2023-06-14T05:00:55;17.00;69.20
45339;DHT22;31071;51.478;5.710;2023-06-14T05:03:25;17.10;68.50
45339;DHT22;31071;51.478;5.710;2023-06-14T05:05:53;17.20;68.70
45339;DHT22;31071;51.478;5.710;2023-06-14T05:08:20;17.30;67.90
45339;DHT22;31071;51.478;5.710;2023-06-14T05:10:49;17.40;68.60
45339;DHT22;31071;51.478;5.710;2023-06-14T05:13:20;17.40;67.80
45339;DHT22;31071;51.478;5.710;2023-06-14T05:15:56;17.50;66.70
45339;DHT22;31071;51.478;5.710;2023-06-14T05:18:22;17.60;66.50
45339;DHT22;31071;51.478;5.710;2023-06-14T05:20:48;17.70;66.60
45339;DHT22;31071;51.478;5.710;2023-06-14T05:23:15;17.80;66.10
45339;DHT22;31071;51.478;5.710;2023-06-14T05:25:47;17.80;65.90
45339;DHT22;31071;51.478;5.710;2023-06-14T05:28:13;17.80;66.10
45339;DHT22;31071;51.478;5.710;2023-06-14T05:30:39;17.90;66.00
45339;DHT22;31071;51.478;5.710;2023-06-14T05:33:05;17.80;66.30
45339;DHT22;31071;51.478;5.710;2023-06-14T05:35:31;17.70;66.00
45339;DHT22;31071;51.478;5.710;2023-06-14T05:37:56;18.10;65.70
45339;DHT22;31071;51.478;5.710;2023-06-14T05:40:22;17.80;65.30
45339;DHT22;31071;51.478;5.710;2023-06-14T05:42:47;18.20;65.60
45339;DHT22;31071;51.478;5.710;2023-06-14T05:45:13;17.70;65.40
45339;DHT22;31071;51.478;5.710;2023-06-14T05:47:41;18.30;65.20
45339;DHT22;31071;51.478;5.710;2023-06-14T05:50:07;18.30;65.20
45339;DHT22;31071;51.478;5.710;2023-06-14T05:52:34;18.40;65.30
45339;DHT22;31071;51.478;5.710;2023-06-14T05:54:59;18.50;65.20
45339;DHT22;31071;51.478;5.710;2023-06-14T05:57:25;18.60;65.10
45339;DHT22;31071;51.478;5.710;2023-06-14T05:59:51;18.70;65.40
45339;DHT22;31071;51.478;5.710;2023-06-14T06:02:16;19.40;66.00
45339;DHT22;31071;51.478;5.710;2023-06-14T06:04:42;18.80;65.80
45339;DHT22;31071;51.478;5.710;2023-06-14T06:07:07;19.70;65.90
45339;DHT22;31071;51.478;5.710;2023-06-14T06:09:33;18.90;64.90
45339;DHT22;31071;51.478;5.710;2023-06-14T06:11:59;19.00;64.60
45339;DHT22;31071;51.478;5.710;2023-06-14T06:14:25;18.30;63.70
45339;DHT22;31071;51.478;5.710;2023-06-14T06:16:50;19.00;63.90
45339;DHT22;31071;51.478;5.710;2023-06-14T06:19:18;18.30;63.80
45339;DHT22;31071;51.478;5.710;2023-06-14T06:21:44;19.30;62.90
45339;DHT22;31071;51.478;5.710;2023-06-14T06:24:09;19.50;63.30
45339;DHT22;31071;51.478;5.710;2023-06-14T06:26:37;20.00;62.60
45339;DHT22;31071;51.478;5.710;2023-06-14T06:29:03;21.80;63.00
45339;DHT22;31071;51.478;5.710;2023-06-14T06:31:28;21.00;62.80
45339;DHT22;31071;51.478;5.710;2023-06-14T06:33:54;19.80;61.50
45339;DHT22;31071;51.478;5.710;2023-06-14T06:36:20;19.60;60.60
45339;DHT22;31071;51.478;5.710;2023-06-14T06:38:47;20.70;61.40
45339;DHT22;31071;51.478;5.710;2023-06-14T06:41:13;20.00;59.40
45339;DHT22;31071;51.478;5.710;2023-06-14T06:43:38;20.00;58.10
45339;DHT22;31071;51.478;5.710;2023-06-14T06:46:04;21.70;59.40
45339;DHT22;31071;51.478;5.710;2023-06-14T06:48:30;21.90;59.60
45339;DHT22;31071;51.478;5.710;2023-06-14T06:50:55;21.90;59.80
45339;DHT22;31071;51.478;5.710;2023-06-14T06:53:21;22.40;58.30
45339;DHT22;31071;51.478;5.710;2023-06-14T06:59:37;20.00;57.30
45339;DHT22;31071;51.478;5.710;2023-06-14T07:02:27;22.50;58.60
45339;DHT22;31071;51.478;5.710;2023-06-14T07:04:53;21.00;57.40
45339;DHT22;31071;51.478;5.710;2023-06-14T07:07:18;21.10;57.80
45339;DHT22;31071;51.478;5.710;2023-06-14T07:09:44;21.20;56.80
45339;DHT22;31071;51.478;5.710;2023-06-14T07:12:11;21.20;56.00
45339;DHT22;31071;51.478;5.710;2023-06-14T07:14:37;21.40;55.90
45339;DHT22;31071;51.478;5.710;2023-06-14T07:17:02;21.40;55.90
45339;DHT22;31071;51.478;5.710;2023-06-14T07:19:28;21.50;55.70
45339;DHT22;31071;51.478;5.710;2023-06-14T07:21:54;21.50;55.00
45339;DHT22;31071;51.478;5.710;2023-06-14T07:24:19;21.70;54.90
45339;DHT22;31071;51.478;5.710;2023-06-14T07:29:55;22.00;54.80
45339;DHT22;31071;51.478;5.710;2023-06-14T07:32:21;22.20;54.60
45339;DHT22;31071;51.478;5.710;2023-06-14T07:34:46;22.20;54.20
45339;DHT22;31071;51.478;5.710;2023-06-14T07:37:12;22.90;52.60
45339;DHT22;31071;51.478;5.710;2023-06-14T07:39:37;23.40;51.50
45339;DHT22;31071;51.478;5.710;2023-06-14T07:42:03;23.40;51.60
45339;DHT22;31071;51.478;5.710;2023-06-14T07:44:29;23.00;50.80
45339;DHT22;31071;51.478;5.710;2023-06-14T07:46:56;23.00;51.50
45339;DHT22;31071;51.478;5.710;2023-06-14T07:49:25;22.90;52.30
45339;DHT22;31071;51.478;5.710;2023-06-14T07:51:51;23.00;52.40
45339;DHT22;31071;51.478;5.710;2023-06-14T07:54:16;23.40;50.70
45339;DHT22;31071;51.478;5.710;2023-06-14T07:56:42;23.40;50.70
45339;DHT22;31071;51.478;5.710;2023-06-14T07:59:08;23.30;50.30
45339;DHT22;31071;51.478;5.710;2023-06-14T08:04:54;23.10;50.70
45339;DHT22;31071;51.478;5.710;2023-06-14T09:45:39;26.30;38.10
45339;DHT22;31071;51.478;5.710;2023-06-14T11:27:29;29.50;38.90
45339;DHT22;31071;51.478;5.710;2023-06-14T11:29:57;30.10;38.50
45339;DHT22;31071;51.478;5.710;2023-06-14T11:32:52;30.70;37.70
45339;DHT22;31071;51.478;5.710;2023-06-14T11:35:31;31.20;35.80
45339;DHT22;31071;51.478;5.710;2023-06-14T11:38:02;30.80;36.90
45339;DHT22;31071;51.478;5.710;2023-06-14T14:55:27;31.00;35.10
45339;DHT22;31071;51.478;5.710;2023-06-14T15:56:23;30.20;36.10
45339;DHT22;31071;51.478;5.710;2023-06-14T16:04:18;30.20;36.20
45339;DHT22;31071;51.478;5.710;2023-06-14T16:07:01;30.00;35.60
45339;DHT22;31071;51.478;5.710;2023-06-14T16:18:28;29.80;36.00
45339;DHT22;31071;51.478;5.710;2023-06-14T16:20:57;29.90;35.40
45339;DHT22;31071;51.478;5.710;2023-06-14T16:23:45;31.40;36.60
45339;DHT22;31071;51.478;5.710;2023-06-14T16:26:11;31.50;39.60
45339;DHT22;31071;51.478;5.710;2023-06-14T16:29:04;30.60;37.40
45339;DHT22;31071;51.478;5.710;2023-06-14T16:32:11;30.30;36.70
45339;DHT22;31071;51.478;5.710;2023-06-14T16:38:27;28.90;35.80
45339;DHT22;31071;51.478;5.710;2023-06-14T16:41:02;31.00;40.10
45339;DHT22;31071;51.478;5.710;2023-06-14T16:50:23;29.00;38.10
45339;DHT22;31071;51.478;5.710;2023-06-14T16:55:30;29.30;37.10
45339;DHT22;31071;51.478;5.710;2023-06-14T17:07:21;28.60;36.80
45339;DHT22;31071;51.478;5.710;2023-06-14T17:09:56;27.80;36.20
45339;DHT22;31071;51.478;5.710;2023-06-14T17:12:22;29.80;37.30
45339;DHT22;31071;51.478;5.710;2023-06-14T17:14:51;28.00;37.60
45339;DHT22;31071;51.478;5.710;2023-06-14T17:20:32;28.00;36.90
45339;DHT22;31071;51.478;5.710;2023-06-14T17:23:20;28.00;37.40
45339;DHT22;31071;51.478;5.710;2023-06-14T17:26:08;29.60;39.40
45339;DHT22;31071;51.478;5.710;2023-06-14T17:54:44;27.00;39.50
45339;DHT22;31071;51.478;5.710;2023-06-14T17:57:38;27.00;40.10
45339;DHT22;31071;51.478;5.710;2023-06-14T18:00:07;26.60;39.00
45339;DHT22;31071;51.478;5.710;2023-06-14T18:02:38;26.60;40.10
45339;DHT22;31071;51.478;5.710;2023-06-14T18:05:15;26.60;41.10
45339;DHT22;31071;51.478;5.710;2023-06-14T18:07:53;26.50;41.90
45339;DHT22;31071;51.478;5.710;2023-06-14T18:13:34;26.40;40.20
45339;DHT22;31071;51.478;5.710;2023-06-14T18:16:42;26.70;41.50
45339;DHT22;31071;51.478;5.710;2023-06-14T18:21:37;26.00;40.80
45339;DHT22;31071;51.478;5.710;2023-06-14T18:24:04;26.10;41.10
45339;DHT22;31071;51.478;5.710;2023-06-14T18:26:32;25.90;41.00
45339;DHT22;31071;51.478;5.710;2023-06-14T18:28:58;25.90;42.10
45339;DHT22;31071;51.478;5.710;2023-06-14T18:31:27;26.30;42.10
45339;DHT22;31071;51.478;5.710;2023-06-14T18:33:52;25.70;42.40
45339;DHT22;31071;51.478;5.710;2023-06-14T18:36:18;27.70;43.90
45339;DHT22;31071;51.478;5.710;2023-06-14T18:38:45;25.40;42.90
45339;DHT22;31071;51.478;5.710;2023-06-14T18:41:12;25.90;42.90
45339;DHT22;31071;51.478;5.710;2023-06-14T18:43:38;25.30;42.90
45339;DHT22;31071;51.478;5.710;2023-06-14T18:46:03;26.30;43.80
45339;DHT22;31071;51.478;5.710;2023-06-14T18:48:29;25.00;44.10
45339;DHT22;31071;51.478;5.710;2023-06-14T18:50:55;26.50;45.80
45339;DHT22;31071;51.478;5.710;2023-06-14T18:53:21;25.60;44.60
45339;DHT22;31071;51.478;5.710;2023-06-14T18:55:47;24.70;44.40
45339;DHT22;31071;51.478;5.710;2023-06-14T18:58:16;25.60;44.40
45339;DHT22;31071;51.478;5.710;2023-06-14T19:00:41;24.50;43.70
45339;DHT22;31071;51.478;5.710;2023-06-14T19:03:07;27.10;46.20
45339;DHT22;31071;51.478;5.710;2023-06-14T19:05:33;25.70;45.30
45339;DHT22;31071;51.478;5.710;2023-06-14T19:07:58;24.40;45.40
45339;DHT22;31071;51.478;5.710;2023-06-14T19:10:24;24.50;45.20
45339;DHT22;31071;51.478;5.710;2023-06-14T19:12:50;25.70;46.10
45339;DHT22;31071;51.478;5.710;2023-06-14T19:15:15;26.30;46.20
45339;DHT22;31071;51.478;5.710;2023-06-14T19:17:41;24.30;45.80
45339;DHT22;31071;51.478;5.710;2023-06-14T19:20:07;24.20;45.90
45339;DHT22;31071;51.478;5.710;2023-06-14T19:22:34;24.00;46.80
45339;DHT22;31071;51.478;5.710;2023-06-14T19:24:59;25.90;47.40
45339;DHT22;31071;51.478;5.710;2023-06-14T19:27:25;24.10;46.40
45339;DHT22;31071;51.478;5.710;2023-06-14T19:29:51;25.70;48.00
45339;DHT22;31071;51.478;5.710;2023-06-14T19:32:17;26.30;48.80
45339;DHT22;31071;51.478;5.710;2023-06-14T19:34:42;25.30;48.20
45339;DHT22;31071;51.478;5.710;2023-06-14T19:37:11;25.40;48.30
45339;DHT22;31071;51.478;5.710;2023-06-14T19:39:37;25.80;49.70
45339;DHT22;31071;51.478;5.710;2023-06-14T19:42:02;24.90;48.70
45339;DHT22;31071;51.478;5.710;2023-06-14T19:44:28;23.40;48.20
45339;DHT22;31071;51.478;5.710;2023-06-14T19:46:54;23.70;48.70
45339;DHT22;31071;51.478;5.710;2023-06-14T19:49:19;24.30;48.80
45339;DHT22;31071;51.478;5.710;2023-06-14T19:51:45;23.30;48.70
45339;DHT22;31071;51.478;5.710;2023-06-14T19:54:11;22.80;49.10
45339;DHT22;31071;51.478;5.710;2023-06-14T19:56:36;23.00;48.80
45339;DHT22;31071;51.478;5.710;2023-06-14T19:59:02;24.60;50.20
45339;DHT22;31071;51.478;5.710;2023-06-14T20:01:28;22.30;49.30
45339;DHT22;31071;51.478;5.710;2023-06-14T20:03:53;24.60;50.80
45339;DHT22;31071;51.478;5.710;2023-06-14T20:06:19;23.40;50.10
45339;DHT22;31071;51.478;5.710;2023-06-14T20:08:45;24.50;50.60
45339;DHT22;31071;51.478;5.710;2023-06-14T20:11:11;24.00;51.00
45339;DHT22;31071;51.478;5.710;2023-06-14T20:13:38;23.30;51.10
45339;DHT22;31071;51.478;5.710;2023-06-14T20:16:04;23.10;51.80
45339;DHT22;31071;51.478;5.710;2023-06-14T20:18:30;22.00;51.20
45339;DHT22;31071;51.478;5.710;2023-06-14T20:20:56;23.70;52.30
45339;DHT22;31071;51.478;5.710;2023-06-14T20:23:21;24.70;52.90
45339;DHT22;31071;51.478;5.710;2023-06-14T20:25:47;23.10;52.30
45339;DHT22;31071;51.478;5.710;2023-06-14T20:28:13;23.50;52.60
45339;DHT22;31071;51.478;5.710;2023-06-14T20:30:39;24.00;53.20
45339;DHT22;31071;51.478;5.710;2023-06-14T20:33:05;22.10;51.90
45339;DHT22;31071;51.478;5.710;2023-06-14T20:35:31;22.50;52.50
45339;DHT22;31071;51.478;5.710;2023-06-14T20:37:56;19.80;51.50
45339;DHT22;31071;51.478;5.710;2023-06-14T20:40:23;21.50;53.10
45339;DHT22;31071;51.478;5.710;2023-06-14T20:42:49;21.50;52.60
45339;DHT22;31071;51.478;5.710;2023-06-14T20:45:15;21.30;53.00
45339;DHT22;31071;51.478;5.710;2023-06-14T20:47:42;21.70;52.90
45339;DHT22;31071;51.478;5.710;2023-06-14T20:50:09;21.30;53.10
45339;DHT22;31071;51.478;5.710;2023-06-14T20:52:40;21.00;53.30
45339;DHT22;31071;51.478;5.710;2023-06-14T20:55:06;22.30;54.00
45339;DHT22;31071;51.478;5.710;2023-06-14T20:57:32;21.10;53.70
45339;DHT22;31071;51.478;5.710;2023-06-14T20:59:58;23.50;55.70
45339;DHT22;31071;51.478;5.710;2023-06-14T21:02:24;20.80;54.50
45339;DHT22;31071;51.478;5.710;2023-06-14T21:04:50;20.80;54.90
45339;DHT22;31071;51.478;5.710;2023-06-14T21:07:16;22.90;56.70
45339;DHT22;31071;51.478;5.710;2023-06-14T21:09:41;21.50;55.40
45339;DHT22;31071;51.478;5.710;2023-06-14T21:12:08;23.60;58.20
45339;DHT22;31071;51.478;5.710;2023-06-14T21:14:34;20.60;56.60
45339;DHT22;31071;51.478;5.710;2023-06-14T21:17:01;21.10;56.30
45339;DHT22;31071;51.478;5.710;2023-06-14T21:19:29;19.10;54.70
45339;DHT22;31071;51.478;5.710;2023-06-14T21:21:59;22.80;57.10
45339;DHT22;31071;51.478;5.710;2023-06-14T21:24:25;20.70;55.70
45339;DHT22;31071;51.478;5.710;2023-06-14T21:26:50;20.50;56.90
45339;DHT22;31071;51.478;5.710;2023-06-14T21:29:16;22.90;58.40
45339;DHT22;31071;51.478;5.710;2023-06-14T21:31:42;18.00;55.90
45339;DHT22;31071;51.478;5.710;2023-06-14T21:34:07;20.50;57.30
45339;DHT22;31071;51.478;5.710;2023-06-14T21:36:34;20.20;56.30
45339;DHT22;31071;51.478;5.710;2023-06-14T21:39:00;22.60;57.80
45339;DHT22;31071;51.478;5.710;2023-06-14T21:41:26;20.30;58.10
45339;DHT22;31071;51.478;5.710;2023-06-14T21:43:54;19.10;56.30
45339;DHT22;31071;51.478;5.710;2023-06-14T21:46:19;20.20;57.70
45339;DHT22;31071;51.478;5.710;2023-06-14T21:48:46;20.20;58.00
45339;DHT22;31071;51.478;5.710;2023-06-14T21:51:11;19.80;56.90
45339;DHT22;31071;51.478;5.710;2023-06-14T21:53:37;20.50;57.30
45339;DHT22;31071;51.478;5.710;2023-06-14T21:56:03;20.00;57.10
45339;DHT22;31071;51.478;5.710;2023-06-14T21:58:28;20.00;57.40
45339;DHT22;31071;51.478;5.710;2023-06-14T22:01:09;19.90;57.80
45339;DHT22;31071;51.478;5.710;2023-06-14T22:03:34;22.50;60.60
45339;DHT22;31071;51.478;5.710;2023-06-14T22:06:00;19.60;58.90
45339;DHT22;31071;51.478;5.710;2023-06-14T22:08:26;21.10;60.30
45339;DHT22;31071;51.478;5.710;2023-06-14T22:10:53;19.30;59.50
45339;DHT22;31071;51.478;5.710;2023-06-14T22:13:19;19.20;60.50
45339;DHT22;31071;51.478;5.710;2023-06-14T22:15:45;19.20;60.30
45339;DHT22;31071;51.478;5.710;2023-06-14T22:18:11;19.10;61.30
45339;DHT22;31071;51.478;5.710;2023-06-14T22:20:37;17.50;60.00
45339;DHT22;31071;51.478;5.710;2023-06-14T22:23:04;18.90;61.80
45339;DHT22;31071;51.478;5.710;2023-06-14T22:25:30;21.10;63.60
45339;DHT22;31071;51.478;5.710;2023-06-14T22:27:56;16.90;62.00
45339;DHT22;31071;51.478;5.710;2023-06-14T22:30:22;18.60;63.40
45339;DHT22;31071;51.478;5.710;2023-06-14T22:32:49;20.90;64.30
45339;DHT22;31071;51.478;5.710;2023-06-14T22:35:16;18.30;63.90
45339;DHT22;31071;51.478;5.710;2023-06-14T22:37:42;20.40;66.00
45339;DHT22;31071;51.478;5.710;2023-06-14T22:40:09;18.30;65.30
45339;DHT22;31071;51.478;5.710;2023-06-14T22:42:46;18.30;64.50
45339;DHT22;31071;51.478;5.710;2023-06-14T22:45:16;18.30;63.90
45339;DHT22;31071;51.478;5.710;2023-06-14T22:47:42;18.30;64.40
45339;DHT22;31071;51.478;5.710;2023-06-14T22:50:11;19.00;64.50
45339;DHT22;31071;51.478;5.710;2023-06-14T22:52:37;18.20;65.30
45339;DHT22;31071;51.478;5.710;2023-06-14T22:55:06;16.50;63.90
45339;DHT22;31071;51.478;5.710;2023-06-14T22:57:33;18.70;65.00
45339;DHT22;31071;51.478;5.710;2023-06-14T22:59:59;20.80;66.60
45339;DHT22;31071;51.478;5.710;2023-06-14T23:02:26;18.20;65.20
45339;DHT22;31071;51.478;5.710;2023-06-14T23:04:52;19.70;66.40
45339;DHT22;31071;51.478;5.710;2023-06-14T23:07:18;18.20;65.50
45339;DHT22;31071;51.478;5.710;2023-06-14T23:09:47;19.30;66.20
45339;DHT22;31071;51.478;5.710;2023-06-14T23:12:13;18.60;65.20
45339;DHT22;31071;51.478;5.710;2023-06-14T23:14:39;18.10;65.50
45339;DHT22;31071;51.478;5.710;2023-06-14T23:17:07;18.10;65.90
45339;DHT22;31071;51.478;5.710;2023-06-14T23:19:36;18.20;66.30
45339;DHT22;31071;51.478;5.710;2023-06-14T23:22:02;17.40;66.10
45339;DHT22;31071;51.478;5.710;2023-06-14T23:24:31;18.00;67.00
45339;DHT22;31071;51.478;5.710;2023-06-14T23:27:00;18.00;67.70
45339;DHT22;31071;51.478;5.710;2023-06-14T23:29:29;15.80;65.70
45339;DHT22;31071;51.478;5.710;2023-06-14T23:32:02;18.00;67.10
45339;DHT22;31071;51.478;5.710;2023-06-14T23:34:27;18.00;66.90
45339;DHT22;31071;51.478;5.710;2023-06-14T23:36:55;18.00;67.30
45339;DHT22;31071;51.478;5.710;2023-06-14T23:39:21;18.00;67.30
45339;DHT22;31071;51.478;5.710;2023-06-14T23:41:47;17.90;67.90
45339;DHT22;31071;51.478;5.710;2023-06-14T23:44:16;18.90;68.50
45339;DHT22;31071;51.478;5.710;2023-06-14T23:46:48;16.30;67.30
45339;DHT22;31071;51.478;5.710;2023-06-14T23:49:14;16.70;67.70
45339;DHT22;31071;51.478;5.710;2023-06-14T23:51:41;17.70;69.30
45339;DHT22;31071;51.478;5.710;2023-06-14T23:54:07;17.50;69.80
45339;DHT22;31071;51.478;5.710;2023-06-14T23:56:35;17.10;69.20
45339;DHT22;31071;51.478;5.710;2023-06-14T23:59:05;17.50;70.40
